Time;durP1;ratioP1;P1;durP2;ratioP2;P2;SDS_P1;SDS_P2;PMS_P1;PMS_P2;Temp;Humidity;BMP_temperature;BMP_pressure;BME280_temperature;BME280_humidity;BME280_pressure;Samples;Min_cycle;Max_cycle;Signal;HPM_P1;HPM_P2
2022/09/09 00:02:21;;;;;;;2.00;1.25;;;;;;;19.64;56.25;100668.81;5072310;28;20506;-65
2022/09/09 00:05:27;;;;;;;2.42;1.25;;;;;;;19.56;56.27;100664.22;5093164;28;20046;-65
2022/09/09 00:07:58;;;;;;;2.05;1.02;;;;;;;19.57;56.39;100662.34;5041649;28;20056;-64
2022/09/09 00:10:41;;;;;;;3.13;1.20;;;;;;;19.54;56.59;100658.09;5092582;28;20451;-65
2022/09/09 00:13:46;;;;;;;3.05;1.27;;;;;;;19.52;56.55;100654.69;5073684;28;20288;-64
2022/09/09 00:16:22;;;;;;;3.08;1.35;;;;;;;19.50;56.46;100656.72;5072350;28;20490;-65
2022/09/09 00:19:01;;;;;;;3.83;1.40;;;;;;;19.46;56.44;100655.34;5072295;28;20036;-65
2022/09/09 00:21:43;;;;;;;1.95;1.30;;;;;;;19.41;56.73;100654.16;5072011;28;20493;-65
2022/09/09 00:24:25;;;;;;;3.83;1.30;;;;;;;19.40;56.50;100644.28;5085338;28;20090;-65
2022/09/09 00:27:06;;;;;;;4.72;1.63;;;;;;;19.34;56.52;100643.09;5060040;28;20060;-64
2022/09/09 00:29:46;;;;;;;3.03;1.60;;;;;;;19.26;56.84;100643.94;5071092;28;20048;-65
2022/09/09 00:32:17;;;;;;;2.72;1.50;;;;;;;19.23;56.65;100644.25;5092079;28;20036;-65
2022/09/09 00:35:26;;;;;;;3.40;1.52;;;;;;;19.20;57.00;100641.88;5073216;28;20472;-64
2022/09/09 00:38:01;;;;;;;3.55;1.50;;;;;;;19.18;56.95;100643.06;5054204;28;20040;-64
2022/09/09 00:40:34;;;;;;;6.03;1.70;;;;;;;19.14;56.69;100649.88;5073607;28;20036;-65
2022/09/09 00:43:32;;;;;;;3.15;1.38;;;;;;;19.11;56.78;100642.03;5085445;28;20044;-65
2022/09/09 00:46:18;;;;;;;3.67;1.60;;;;;;;19.12;56.56;100638.31;5072099;28;20242;-65
2022/09/09 00:48:47;;;;;;;3.22;1.60;;;;;;;19.14;57.19;100647.16;5071869;28;20048;-64
2022/09/09 00:51:42;;;;;;;4.30;1.58;;;;;;;19.11;57.30;100642.03;5054080;28;20056;-65
2022/09/09 00:54:16;;;;;;;5.18;1.85;;;;;;;19.11;57.34;100639.31;5067102;28;20044;-64
2022/09/09 00:57:17;;;;;;;5.40;1.95;;;;;;;19.09;57.39;100638.66;5092245;28;20043;-65
2022/09/09 00:59:50;;;;;;;2.40;1.55;;;;;;;19.10;57.10;100634.91;5090556;28;20040;-65
2022/09/09 01:02:27;;;;;;;3.50;1.60;;;;;;;19.12;57.15;100630.13;5091435;28;20089;-65
2022/09/09 01:05:00;;;;;;;5.38;1.90;;;;;;;19.12;57.42;100633.72;5076450;28;20062;-64
2022/09/09 01:07:27;;;;;;;3.05;1.58;;;;;;;19.07;57.42;100630.66;5073917;28;20036;-64
2022/09/09 01:09:59;;;;;;;2.25;1.80;;;;;;;19.04;57.40;100628.25;5069245;28;20449;-64
2022/09/09 01:12:43;;;;;;;2.17;1.40;;;;;;;19.02;57.40;100628.44;5072199;28;20040;-65
2022/09/09 01:15:22;;;;;;;3.55;1.75;;;;;;;19.01;57.33;100623.16;5068008;28;20078;-65
2022/09/09 01:18:01;;;;;;;6.28;2.17;;;;;;;18.96;57.56;100626.38;5069988;28;20147;-65
2022/09/09 01:20:47;;;;;;;10.00;2.30;;;;;;;18.94;57.59;100628.44;5068129;28;20090;-65
2022/09/09 01:23:42;;;;;;;6.10;1.83;;;;;;;18.88;57.53;100622.81;5051221;28;20128;-64
2022/09/09 01:26:17;;;;;;;3.58;1.83;;;;;;;18.83;57.61;100619.75;5060576;28;20044;-65
2022/09/09 01:28:48;;;;;;;3.20;1.63;;;;;;;18.79;57.55;100619.22;5071266;28;20067;-64
2022/09/09 01:31:23;;;;;;;4.55;2.03;;;;;;;18.79;57.84;100621.94;5061965;28;20041;-65
2022/09/09 01:33:52;;;;;;;2.60;1.83;;;;;;;18.80;57.43;100634.53;5053719;28;20083;-65
2022/09/09 01:36:41;;;;;;;4.65;1.95;;;;;;;18.82;58.06;100623.47;5054058;28;20439;-64
2022/09/09 01:39:07;;;;;;;7.18;1.90;;;;;;;18.86;57.52;100625.69;5051258;28;20037;-65
2022/09/09 01:41:35;;;;;;;4.22;1.90;;;;;;;18.89;58.04;100627.22;5060673;28;20561;-66
2022/09/09 01:44:07;;;;;;;4.43;1.98;;;;;;;18.91;57.90;100627.91;5070096;28;20049;-65
2022/09/09 01:46:35;;;;;;;6.68;2.20;;;;;;;18.93;57.78;100620.44;5070030;28;20036;-65
2022/09/09 01:49:06;;;;;;;4.53;2.20;;;;;;;18.94;57.96;100622.13;5061430;28;20053;-65
2022/09/09 01:51:36;;;;;;;3.30;1.90;;;;;;;18.89;57.49;100619.91;5050962;28;20037;-64
2022/09/09 01:54:10;;;;;;;3.63;1.70;;;;;;;18.85;57.93;100618.56;5054200;28;20052;-65
2022/09/09 01:57:14;;;;;;;4.90;2.22;;;;;;;18.81;58.05;100622.63;5055350;28;20049;-64
2022/09/09 02:00:06;;;;;;;5.00;2.03;;;;;;;18.80;58.16;100614.63;5055220;28;20566;-65
2022/09/09 02:03:03;;;;;;;6.55;2.08;;;;;;;18.77;57.81;100610.38;5061680;28;20059;-64
2022/09/09 02:06:08;;;;;;;3.78;2.00;;;;;;;18.72;57.89;100610.03;5059311;28;20095;-65
2022/09/09 02:08:45;;;;;;;5.68;2.35;;;;;;;18.75;58.16;100609.69;5054018;28;20048;-65
2022/09/09 02:11:14;;;;;;;6.07;2.25;;;;;;;18.77;58.22;100607.66;5055708;28;20044;-65
2022/09/09 02:13:52;;;;;;;6.03;3.15;;;;;;;18.77;57.98;100612.25;5053683;28;20041;-65
2022/09/09 02:16:27;;;;;;;5.88;2.20;;;;;;;18.78;58.38;100601.19;5053676;28;20521;-65
2022/09/09 02:19:00;;;;;;;4.03;2.83;;;;;;;18.79;58.43;100600.19;5074803;28;20051;-64
2022/09/09 02:21:43;;;;;;;6.60;2.55;;;;;;;18.78;58.29;100598.47;5058359;28;20052;-64
2022/09/09 02:24:14;;;;;;;4.10;2.00;;;;;;;18.75;58.32;100595.25;5073546;28;20048;-65
2022/09/09 02:26:52;;;;;;;8.02;2.40;;;;;;;18.71;58.33;100600.16;5061995;28;20085;-64
2022/09/09 02:29:35;;;;;;;4.55;2.50;;;;;;;18.67;58.55;100594.22;5060187;28;20044;-64
2022/09/09 02:32:07;;;;;;;4.85;2.20;;;;;;;18.68;58.17;100597.78;5080959;28;20036;-65
2022/09/09 02:34:43;;;;;;;6.13;2.30;;;;;;;18.68;58.34;100600.50;5068194;28;20455;-64
2022/09/09 02:37:11;;;;;;;6.95;2.70;;;;;;;18.64;58.66;100590.97;5056315;28;20098;-65
2022/09/09 02:39:41;;;;;;;3.25;2.40;;;;;;;18.61;58.49;100584.00;5058040;28;20044;-65
2022/09/09 02:42:14;;;;;;;8.25;2.47;;;;;;;18.60;58.59;100586.84;5061709;28;20044;-65
2022/09/09 02:44:43;;;;;;;5.35;2.50;;;;;;;18.60;58.40;100592.28;5056354;28;20041;-64
2022/09/09 02:47:28;;;;;;;3.95;2.85;;;;;;;18.58;59.02;100592.47;5056580;28;20094;-64
2022/09/09 02:50:09;;;;;;;5.30;2.33;;;;;;;18.59;58.91;100599.59;5056499;28;20040;-65
2022/09/09 02:53:41;;;;;;;5.30;2.50;;;;;;;18.62;58.90;100603.88;5089164;28;20028;-65
2022/09/09 02:56:17;;;;;;;6.38;2.10;;;;;;;18.70;59.19;100603.91;4992550;28;20137;-65
2022/09/09 02:58:46;;;;;;;5.15;2.63;;;;;;;18.73;58.87;100600.84;4976083;28;20537;-64
2022/09/09 03:01:13;;;;;;;6.65;2.55;;;;;;;18.73;59.23;100595.41;5038654;28;20052;-65
2022/09/09 03:03:46;;;;;;;5.97;2.53;;;;;;;18.75;58.86;100600.69;5055339;28;20498;-65
2022/09/09 03:06:15;;;;;;;5.57;2.50;;;;;;;18.73;58.96;100603.56;5056402;28;20040;-65
2022/09/09 03:08:46;;;;;;;3.50;2.20;;;;;;;18.69;58.96;100596.75;5056129;28;20052;-64
2022/09/09 03:11:17;;;;;;;7.43;2.70;;;;;;;18.69;58.91;100605.78;5042888;28;20147;-64
2022/09/09 03:13:49;;;;;;;7.20;2.55;;;;;;;18.72;59.16;100610.03;5055931;28;20048;-65
2022/09/09 03:16:16;;;;;;;5.57;2.50;;;;;;;18.71;59.17;100601.03;5039541;28;20094;-65
2022/09/09 03:18:47;;;;;;;9.75;3.15;;;;;;;18.69;59.20;100596.75;5069287;28;20068;-65
2022/09/09 03:21:14;;;;;;;8.38;2.72;;;;;;;18.65;59.28;100598.97;5054459;28;20044;-64
2022/09/09 03:23:42;;;;;;;8.30;3.17;;;;;;;18.64;59.48;100610.00;5052571;28;20056;-66
2022/09/09 03:26:09;;;;;;;5.50;2.60;;;;;;;18.67;59.51;100601.53;5052586;28;20136;-65
2022/09/09 03:28:42;;;;;;;8.15;2.70;;;;;;;18.66;59.20;100600.66;5052501;28;20118;-65
2022/09/09 03:31:10;;;;;;;10.55;2.95;;;;;;;18.66;59.35;100605.25;5068076;28;20120;-65
2022/09/09 03:33:42;;;;;;;6.00;2.60;;;;;;;18.66;59.43;100605.25;5052383;28;20056;-65
2022/09/09 03:36:12;;;;;;;11.35;2.60;;;;;;;18.67;59.75;100599.66;5052537;28;20059;-65
2022/09/09 03:38:39;;;;;;;7.57;2.67;;;;;;;18.70;59.80;100606.63;5052266;28;20048;-65
2022/09/09 03:41:07;;;;;;;9.05;3.13;;;;;;;18.70;59.57;100610.19;5052774;28;20438;-65
2022/09/09 03:43:37;;;;;;;4.70;2.85;;;;;;;18.68;59.92;100606.78;5052121;28;20048;-65
2022/09/09 03:46:04;;;;;;;6.18;3.17;;;;;;;18.71;60.01;100613.78;5053475;28;20038;-65
2022/09/09 03:48:31;;;;;;;5.45;2.55;;;;;;;18.73;60.08;100611.72;5054155;28;20391;-65
2022/09/09 03:51:01;;;;;;;6.00;3.00;;;;;;;18.78;60.14;100616.66;5068194;28;20049;-65
2022/09/09 03:53:31;;;;;;;5.63;3.15;;;;;;;18.80;60.25;100614.63;5072315;28;20475;-65
2022/09/09 03:55:59;;;;;;;6.50;2.70;;;;;;;18.81;60.18;100606.31;5073535;28;20453;-64
2022/09/09 03:58:28;;;;;;;7.75;3.35;;;;;;;18.85;59.84;100606.81;5073542;28;20043;-64
2022/09/09 04:01:08;;;;;;;8.65;3.35;;;;;;;18.86;60.07;100603.06;5072073;28;20048;-64
2022/09/09 04:03:37;;;;;;;12.80;3.22;;;;;;;18.88;59.99;100604.59;5072311;28;20094;-65
2022/09/09 04:06:06;;;;;;;8.07;3.10;;;;;;;18.87;60.00;100600.19;5071949;28;20052;-64
2022/09/09 04:08:35;;;;;;;8.55;4.28;;;;;;;18.89;60.08;100609.03;5072267;28;20044;-65
2022/09/09 04:11:06;;;;;;;5.90;2.53;;;;;;;18.90;60.36;100607.16;5071932;28;20029;-65
2022/09/09 04:13:38;;;;;;;4.68;2.60;;;;;;;18.91;60.40;100608.88;5072224;28;20525;-65
2022/09/09 04:16:09;;;;;;;4.65;2.97;;;;;;;18.95;60.50;100602.91;5072314;28;20106;-65
2022/09/09 04:18:36;;;;;;;9.05;2.67;;;;;;;18.98;60.21;100599.84;5091034;28;20402;-65
2022/09/09 04:21:05;;;;;;;4.82;2.90;;;;;;;19.00;60.61;100595.09;5075465;28;20093;-65
2022/09/09 04:23:36;;;;;;;7.20;2.72;;;;;;;19.00;60.29;100597.81;5075573;28;20543;-65
2022/09/09 04:26:04;;;;;;;4.38;2.63;;;;;;;19.03;60.36;100589.31;5075596;28;20044;-65
2022/09/09 04:28:36;;;;;;;8.73;3.05;;;;;;;19.04;60.83;100587.44;5075095;28;20044;-65
2022/09/09 04:31:14;;;;;;;5.22;2.42;;;;;;;19.05;60.68;100587.28;5058133;28;20037;-66
2022/09/09 04:33:44;;;;;;;;;;;;;;;19.10;60.68;100586.75;5055141;28;20075;-65
2022/09/09 04:36:10;;;;;;;6.20;3.15;;;;;;;19.16;60.28;100574.34;5054791;28;19924;-65
2022/09/09 04:38:37;;;;;;;6.97;2.80;;;;;;;19.17;60.38;100581.47;5054894;28;20072;-64
2022/09/09 04:41:04;;;;;;;5.25;3.05;;;;;;;19.16;60.63;100575.19;5054551;28;20041;-65
2022/09/09 04:43:37;;;;;;;10.02;3.15;;;;;;;19.19;60.79;100582.16;5054425;28;20544;-65
2022/09/09 04:46:06;;;;;;;6.22;2.88;;;;;;;19.20;60.57;100582.00;5054429;28;20047;-65
2022/09/09 04:48:33;;;;;;;4.65;2.38;;;;;;;19.23;60.74;100578.06;5072598;28;20040;-65
2022/09/09 04:51:06;;;;;;;6.40;2.88;;;;;;;19.26;60.76;100578.56;5073897;28;20066;-65
2022/09/09 04:53:35;;;;;;;6.82;2.75;;;;;;;19.27;60.38;100576.72;5074500;28;20127;-65
2022/09/09 04:56:13;;;;;;;6.18;3.22;;;;;;;19.25;60.86;100576.03;5069434;28;20067;-64
2022/09/09 04:58:45;;;;;;;9.93;3.28;;;;;;;19.22;60.64;100576.38;5054427;28;20127;-65
2022/09/09 05:01:17;;;;;;;6.43;2.85;;;;;;;19.21;60.67;100570.06;5054746;28;20102;-65
2022/09/09 05:03:45;;;;;;;4.47;2.70;;;;;;;19.20;60.97;100567.53;5072433;28;20066;-65
2022/09/09 05:06:17;;;;;;;7.45;2.97;;;;;;;19.21;61.11;100571.94;5054676;28;20048;-65
2022/09/09 05:08:48;;;;;;;7.60;2.58;;;;;;;19.21;60.78;100567.34;5073694;28;20051;-65
2022/09/09 05:11:19;;;;;;;5.10;2.60;;;;;;;19.25;60.79;100576.88;5058192;28;20520;-64
2022/09/09 05:13:49;;;;;;;6.60;2.83;;;;;;;19.27;61.14;100573.97;5074367;28;20452;-65
2022/09/09 05:16:18;;;;;;;6.63;2.53;;;;;;;19.28;60.65;100579.25;5073454;28;20054;-65
2022/09/09 05:18:45;;;;;;;6.40;2.28;;;;;;;19.30;60.64;100574.50;5071159;28;20068;-65
2022/09/09 05:21:15;;;;;;;10.57;2.75;;;;;;;19.34;61.07;100577.75;5071088;28;20466;-64
2022/09/09 05:23:44;;;;;;;7.15;2.70;;;;;;;19.34;61.00;100577.75;5072338;28;20131;-65
2022/09/09 05:26:17;;;;;;;3.90;2.33;;;;;;;19.35;60.78;100569.41;5045561;28;20118;-64
2022/09/09 05:28:47;;;;;;;5.15;2.22;;;;;;;19.38;60.71;100565.50;5051584;28;20041;-65
2022/09/09 05:31:16;;;;;;;7.30;2.78;;;;;;;19.36;61.12;100568.38;5051011;28;20487;-64
2022/09/09 05:33:49;;;;;;;8.63;2.70;;;;;;;19.38;61.00;100565.50;5050848;28;20396;-65
2022/09/09 05:36:18;;;;;;;7.28;3.40;;;;;;;19.36;60.79;100568.38;5051051;28;20037;-65
2022/09/09 05:38:49;;;;;;;6.95;2.42;;;;;;;19.35;61.00;100568.56;5051296;28;20045;-64
2022/09/09 05:41:16;;;;;;;6.18;2.40;;;;;;;19.36;61.06;100567.53;5051162;28;20045;-64
2022/09/09 05:43:48;;;;;;;8.80;3.33;;;;;;;19.34;60.82;100567.72;5058351;28;20102;-65
2022/09/09 05:46:24;;;;;;;6.88;2.70;;;;;;;19.35;60.98;100565.84;5054758;28;20044;-65
2022/09/09 05:48:53;;;;;;;6.18;2.33;;;;;;;19.36;61.08;100567.53;5070793;28;20043;-65
2022/09/09 05:51:31;;;;;;;10.52;3.50;;;;;;;19.37;61.11;100569.25;5069219;28;20040;-65
2022/09/09 05:54:04;;;;;;;9.10;2.60;;;;;;;19.38;60.99;100570.09;5069644;28;20122;-64
2022/09/09 05:56:34;;;;;;;9.82;2.63;;;;;;;19.39;61.29;100566.34;5071202;28;20047;-64
2022/09/09 05:59:02;;;;;;;6.97;2.47;;;;;;;19.40;61.30;100570.75;5069856;28;20040;-65
2022/09/09 06:01:31;;;;;;;7.30;2.50;;;;;;;19.42;61.30;100569.56;5069861;28;20048;-65
2022/09/09 06:04:03;;;;;;;8.55;3.15;;;;;;;19.44;61.18;100580.28;5069427;28;20253;-65
2022/09/09 06:06:36;;;;;;;5.13;2.38;;;;;;;19.43;61.23;100570.41;5070826;28;20575;-65
2022/09/09 06:09:10;;;;;;;7.28;2.30;;;;;;;19.45;60.86;100574.66;5069651;28;20044;-65
2022/09/09 06:11:39;;;;;;;8.77;2.60;;;;;;;19.44;61.26;100583.88;5060016;28;20041;-65
2022/09/09 06:14:08;;;;;;;7.35;2.67;;;;;;;19.46;61.11;100584.53;5055671;28;20047;-64
2022/09/09 06:16:37;;;;;;;8.10;3.10;;;;;;;19.46;60.96;100584.53;5050536;28;20041;-66
2022/09/09 06:19:09;;;;;;;8.95;2.95;;;;;;;19.49;61.31;100588.78;5053031;28;20044;-66
2022/09/09 06:21:37;;;;;;;10.20;3.33;;;;;;;19.53;60.85;100582.84;5070554;28;20055;-66
2022/09/09 06:24:08;;;;;;;10.27;3.38;;;;;;;19.57;61.15;100581.47;5061705;28;20036;-66
2022/09/09 06:26:40;;;;;;;9.95;3.45;;;;;;;19.58;61.28;100591.34;5073059;28;20135;-66
2022/09/09 06:29:09;;;;;;;7.90;3.05;;;;;;;19.61;61.32;100582.00;5072812;28;20047;-66
2022/09/09 06:31:37;;;;;;;5.95;2.80;;;;;;;19.61;61.55;100585.56;5072729;28;20520;-66
2022/09/09 06:34:28;;;;;;;6.95;2.83;;;;;;;19.64;61.60;100587.09;5060751;28;20507;-66
2022/09/09 06:36:58;;;;;;;8.75;3.70;;;;;;;19.67;61.47;100576.69;5051654;28;20036;-65
2022/09/09 06:39:29;;;;;;;8.85;3.30;;;;;;;19.70;61.67;100583.66;5054831;28;20502;-66
2022/09/09 06:41:57;;;;;;;7.68;2.80;;;;;;;19.74;61.62;100574.13;5056124;28;20060;-65
2022/09/09 06:44:56;;;;;;;10.20;3.22;;;;;;;19.82;61.65;100581.41;5049712;28;20523;-66
2022/09/09 06:47:48;;;;;;;6.50;2.53;;;;;;;19.86;61.47;100580.88;5079354;28;20050;-64
2022/09/09 06:50:16;;;;;;;8.02;3.05;;;;;;;19.91;61.87;100581.22;5067817;28;20047;-65
2022/09/09 06:52:47;;;;;;;9.93;3.28;;;;;;;20.01;61.86;100578.28;5059973;28;20087;-65
2022/09/09 06:55:15;;;;;;;6.13;2.95;;;;;;;20.09;61.60;100583.72;5056008;28;20047;-64
2022/09/09 06:57:43;;;;;;;8.43;3.58;;;;;;;20.15;61.85;100583.03;5039674;28;20045;-65
2022/09/09 07:00:18;;;;;;;5.43;2.50;;;;;;;20.20;61.53;100577.03;5056176;28;20040;-65
2022/09/09 07:02:44;;;;;;;9.95;2.72;;;;;;;20.23;61.54;100577.53;5061036;28;20046;-65
2022/09/09 07:05:12;;;;;;;10.77;3.05;;;;;;;20.30;61.29;100580.38;5075893;28;20044;-66
2022/09/09 07:07:40;;;;;;;7.95;3.03;;;;;;;20.38;61.60;100574.88;5076203;28;20040;-66
2022/09/09 07:10:09;;;;;;;9.98;3.67;;;;;;;20.47;61.57;100573.84;5076175;28;20517;-66
2022/09/09 07:12:37;;;;;;;6.22;3.47;;;;;;;20.54;61.17;100582.16;5076166;28;20036;-65
2022/09/09 07:15:06;;;;;;;12.45;3.03;;;;;;;20.57;60.94;100570.88;5058827;28;20051;-65
2022/09/09 07:17:32;;;;;;;10.18;2.67;;;;;;;20.60;60.90;100573.25;5071664;28;20433;-65
2022/09/09 07:20:12;;;;;;;8.45;3.00;;;;;;;20.69;61.05;100579.50;5056646;28;20040;-66
2022/09/09 07:22:39;;;;;;;6.15;2.55;;;;;;;20.78;61.08;100568.34;5072348;28;20075;-66
2022/09/09 07:25:08;;;;;;;5.97;2.63;;;;;;;20.93;60.98;100574.75;5071810;28;20098;-66
2022/09/09 07:27:35;;;;;;;8.02;2.65;;;;;;;21.12;61.02;100567.09;5070832;28;20041;-66
2022/09/09 07:30:04;;;;;;;7.32;3.00;;;;;;;21.26;60.55;100577.22;5053478;28;20499;-66
2022/09/09 07:32:32;;;;;;;5.55;2.90;;;;;;;21.35;60.23;100578.84;5051809;28;20033;-66
2022/09/09 07:34:59;;;;;;;7.32;2.60;;;;;;;21.42;59.93;100573.50;5051685;28;20044;-67
2022/09/09 07:37:27;;;;;;;5.75;2.10;;;;;;;21.44;60.00;100582.34;5051427;28;20064;-66
2022/09/09 07:39:53;;;;;;;5.95;2.58;;;;;;;21.49;59.67;100583.47;5052980;28;20052;-67
2022/09/09 07:42:20;;;;;;;7.72;2.65;;;;;;;21.52;59.45;100576.78;5051323;28;20499;-66
2022/09/09 07:44:47;;;;;;;7.15;2.30;;;;;;;21.58;59.69;100572.50;5051101;28;20044;-66
2022/09/09 07:47:15;;;;;;;7.30;2.33;;;;;;;21.71;59.55;100578.16;5060949;28;20473;-66
2022/09/09 07:49:46;;;;;;;7.47;3.25;;;;;;;21.84;59.36;100573.72;5070931;28;20040;-66
2022/09/09 07:52:16;;;;;;;6.80;2.38;;;;;;;22.04;59.38;100578.66;5069268;28;20088;-67
2022/09/09 07:54:48;;;;;;;7.82;2.35;;;;;;;22.23;58.86;100577.22;5071164;28;20060;-65
2022/09/09 07:57:16;;;;;;;10.65;2.25;;;;;;;22.35;58.77;100575.72;5070270;28;20041;-67
2022/09/09 07:59:46;;;;;;;6.38;2.03;;;;;;;22.47;58.19;100579.66;5070435;28;20036;-67
2022/09/09 08:02:12;;;;;;;6.15;2.00;;;;;;;22.62;57.99;100582.34;5070928;28;20098;-67
2022/09/09 08:04:41;;;;;;;8.48;2.30;;;;;;;22.73;58.01;100582.69;5071159;28;20045;-67
2022/09/09 08:07:07;;;;;;;4.63;1.58;;;;;;;22.82;57.48;100591.66;5070414;28;20419;-67
2022/09/09 08:09:41;;;;;;;5.80;1.88;;;;;;;22.79;56.98;100592.84;5070942;28;20044;-67
2022/09/09 08:12:22;;;;;;;3.75;1.55;;;;;;;22.74;56.74;100586.25;5070675;28;20045;-67
2022/09/09 08:14:51;;;;;;;7.90;2.10;;;;;;;22.70;56.63;100594.00;5070935;28;20413;-67
2022/09/09 08:17:18;;;;;;;6.90;1.50;;;;;;;22.65;56.55;100588.28;5070606;28;20045;-67
2022/09/09 08:19:45;;;;;;;8.75;1.95;;;;;;;22.61;56.37;100592.44;5070750;28;20064;-67
2022/09/09 08:22:17;;;;;;;4.82;1.95;;;;;;;22.56;55.92;100594.91;5054645;28;20040;-67
2022/09/09 08:24:43;;;;;;;10.00;2.08;;;;;;;22.51;56.38;100600.13;5069117;28;20051;-67
2022/09/09 08:27:12;;;;;;;5.03;1.95;;;;;;;22.50;56.21;100599.28;5070391;28;20097;-67
2022/09/09 08:29:39;;;;;;;5.97;2.17;;;;;;;22.51;56.54;100602.84;5053956;28;20056;-67
2022/09/09 08:32:06;;;;;;;8.48;2.40;;;;;;;22.52;56.03;100604.53;5070239;28;20064;-67
2022/09/09 08:34:34;;;;;;;8.18;1.63;;;;;;;22.47;55.86;100599.66;5070299;28;20036;-67
2022/09/09 08:37:05;;;;;;;7.80;1.60;;;;;;;22.45;56.07;100606.34;5068404;28;20047;-67
2022/09/09 08:39:36;;;;;;;6.07;1.80;;;;;;;22.46;56.03;100600.69;5052918;28;20056;-67
2022/09/09 08:42:25;;;;;;;8.02;2.25;;;;;;;22.50;56.08;100603.88;5050272;28;20049;-66
2022/09/09 08:45:24;;;;;;;7.25;2.10;;;;;;;22.49;56.08;100604.94;5065663;28;20041;-67
2022/09/09 08:48:05;;;;;;;7.65;1.83;;;;;;;22.49;56.04;100610.41;5070168;28;20049;-67
2022/09/09 08:50:40;;;;;;;5.88;1.75;;;;;;;22.47;55.87;100599.66;5068564;28;20121;-67
2022/09/09 08:53:37;;;;;;;6.72;2.25;;;;;;;22.51;55.85;100602.84;5058437;28;20529;-66
2022/09/09 08:56:12;;;;;;;5.38;1.80;;;;;;;22.52;55.63;100607.28;5063208;28;20091;-66
2022/09/09 08:58:57;;;;;;;5.10;1.67;;;;;;;22.51;55.67;100611.06;5068952;28;20041;-67
2022/09/09 09:02:02;;;;;;;6.20;2.00;;;;;;;22.48;55.77;100606.81;5069594;28;20045;-67
2022/09/09 09:05:06;;;;;;;5.00;1.60;;;;;;;22.47;55.75;100609.75;5070401;28;20047;-66
2022/09/09 09:07:47;;;;;;;5.60;2.25;;;;;;;22.47;55.47;100610.59;5068599;28;20032;-67
2022/09/09 09:10:35;;;;;;;9.30;2.47;;;;;;;22.47;55.67;100623.44;5069877;28;20051;-67
2022/09/09 09:13:48;;;;;;;5.60;1.70;;;;;;;22.49;55.57;100610.41;5070020;28;20051;-67
2022/09/09 09:16:24;;;;;;;8.50;1.95;;;;;;;22.51;55.69;100622.00;5027461;28;20054;-67
2022/09/09 09:18:54;;;;;;;6.03;1.83;;;;;;;22.55;55.39;100606.91;5053775;28;20053;-66
2022/09/09 09:21:32;;;;;;;4.88;1.33;;;;;;;22.59;55.22;100612.84;5050049;28;20601;-67
2022/09/09 09:24:10;;;;;;;4.82;1.70;;;;;;;22.60;55.17;100617.28;5049874;28;20506;-66
2022/09/09 09:26:37;;;;;;;4.82;1.60;;;;;;;22.58;55.45;100614.72;5050396;28;20543;-66
2022/09/09 09:29:16;;;;;;;7.53;1.98;;;;;;;22.58;55.03;100620.19;5066155;28;20082;-66
2022/09/09 09:31:56;;;;;;;4.80;1.50;;;;;;;22.56;54.79;100619.53;5069652;28;20040;-66
2022/09/09 09:34:25;;;;;;;7.22;2.00;;;;;;;22.52;54.80;100616.34;5070000;28;20509;-68
2022/09/09 09:36:58;;;;;;;6.32;1.88;;;;;;;22.49;54.66;100615.88;5053138;28;20052;-67
2022/09/09 09:39:31;;;;;;;8.85;1.60;;;;;;;22.46;54.66;100621.72;5071427;28;20036;-66
2022/09/09 09:42:18;;;;;;;4.97;1.45;;;;;;;22.44;54.55;100626.56;5069982;28;20389;-66
2022/09/09 09:44:52;;;;;;;6.63;1.70;;;;;;;22.42;54.72;100625.91;5070540;28;20049;-67
2022/09/09 09:47:23;;;;;;;6.22;1.75;;;;;;;22.45;54.53;100614.56;5068451;28;20164;-67
2022/09/09 09:50:18;;;;;;;7.43;1.85;;;;;;;22.46;54.61;100610.78;5055664;28;20522;-67
2022/09/09 09:52:55;;;;;;;7.03;1.75;;;;;;;22.46;54.69;100610.78;5050030;28;20446;-67
2022/09/09 09:55:24;;;;;;;6.88;2.33;;;;;;;22.47;54.68;100609.75;5050554;28;20080;-68
2022/09/09 09:57:51;;;;;;;7.68;2.03;;;;;;;22.46;54.50;100616.25;5050278;28;20037;-67
2022/09/09 10:00:21;;;;;;;4.80;1.65;;;;;;;22.48;54.59;100630.59;5050385;28;20045;-68
2022/09/09 10:02:56;;;;;;;5.68;1.77;;;;;;;22.51;54.46;100622.00;5050384;28;20502;-68
2022/09/09 10:05:31;;;;;;;4.68;1.92;;;;;;;22.52;54.54;100620.97;5050866;28;20041;-67
2022/09/09 10:08:18;;;;;;;4.43;1.80;;;;;;;22.52;54.31;100620.97;5051643;28;20037;-67
2022/09/09 10:11:19;;;;;;;7.78;2.17;;;;;;;22.54;54.12;100616.16;5054146;28;20103;-68
2022/09/09 10:14:22;;;;;;;6.03;1.70;;;;;;;22.55;54.23;100612.38;5071228;28;20044;-68
2022/09/09 10:17:01;;;;;;;6.97;1.70;;;;;;;22.54;54.16;100613.41;5074510;28;20498;-68
2022/09/09 10:19:35;;;;;;;5.38;1.60;;;;;;;22.52;54.13;100618.22;5056403;28;20515;-68
2022/09/09 10:22:11;;;;;;;6.00;1.92;;;;;;;22.50;54.15;100617.56;5074297;28;20078;-69
2022/09/09 10:25:09;;;;;;;4.15;1.35;;;;;;;22.49;54.03;100614.00;5074412;28;20040;-68
2022/09/09 10:28:15;;;;;;;7.95;1.83;;;;;;;22.55;54.00;100615.09;5003931;28;20060;-68
2022/09/09 10:30:59;;;;;;;7.35;1.80;;;;;;;22.62;54.10;100620.66;5090448;28;20055;-68
2022/09/09 10:34:11;;;;;;;7.65;1.60;;;;;;;22.65;54.19;100618.38;5076345;28;20036;-69
2022/09/09 10:36:46;;;;;;;4.22;1.55;;;;;;;22.65;53.97;100623.84;5021842;28;20449;-68
2022/09/09 10:39:32;;;;;;;11.93;2.05;;;;;;;22.65;54.30;100618.38;5094203;28;20043;-68
2022/09/09 10:42:07;;;;;;;4.80;1.67;;;;;;;22.63;54.30;100622.34;5094184;28;20068;-68
2022/09/09 10:44:44;;;;;;;6.28;1.52;;;;;;;22.60;54.25;100623.59;5094283;28;20099;-69
2022/09/09 10:47:17;;;;;;;5.65;1.70;;;;;;;22.54;53.87;100620.78;5093991;28;20036;-68
2022/09/09 10:49:58;;;;;;;4.28;1.30;;;;;;;22.49;54.34;100633.16;5093580;28;20059;-68
2022/09/09 10:52:48;;;;;;;8.05;2.47;;;;;;;22.48;54.38;100631.44;5094247;28;20048;-68
2022/09/09 10:55:18;;;;;;;6.15;1.90;;;;;;;22.48;54.36;100631.44;5093859;28;20456;-69
2022/09/09 10:57:53;;;;;;;6.82;1.70;;;;;;;22.44;54.23;100637.50;5093656;28;20559;-69
2022/09/09 11:00:23;;;;;;;9.23;2.90;;;;;;;22.37;54.38;100634.69;5094237;28;20036;-68
2022/09/09 11:03:01;;;;;;;7.10;1.55;;;;;;;22.28;54.61;100643.16;5093675;28;20490;-68
2022/09/09 11:05:41;;;;;;;5.30;1.88;;;;;;;22.19;54.88;100634.19;5092002;28;20056;-68
2022/09/09 11:08:18;;;;;;;5.38;1.67;;;;;;;22.07;55.20;100633.81;5073373;28;20620;-68
2022/09/09 11:11:03;;;;;;;3.85;1.52;;;;;;;21.98;55.23;100640.38;5073582;28;20037;-68
2022/09/09 11:13:37;;;;;;;7.75;1.75;;;;;;;21.89;55.37;100646.97;5073743;28;20040;-68
2022/09/09 11:16:20;;;;;;;4.75;1.80;;;;;;;21.81;55.64;100653.38;5073420;28;20099;-67
2022/09/09 11:18:47;;;;;;;6.10;1.90;;;;;;;21.75;55.87;100651.41;5073047;28;20044;-68
2022/09/09 11:21:31;;;;;;;5.50;2.20;;;;;;;21.71;56.07;100650.06;5073370;28;20036;-67
2022/09/09 11:24:13;;;;;;;6.07;2.20;;;;;;;21.68;56.56;100657.81;5072550;28;20462;-67
2022/09/09 11:26:49;;;;;;;6.93;2.28;;;;;;;21.70;56.67;100661.19;5073079;28;20048;-67
2022/09/09 11:29:44;;;;;;;4.15;2.13;;;;;;;21.71;56.89;100643.75;5072772;28;20238;-67
2022/09/09 11:32:29;;;;;;;7.27;2.43;;;;;;;21.74;57.11;100646.97;5087270;28;20040;-67
2022/09/09 11:35:20;;;;;;;6.45;2.08;;;;;;;21.76;57.13;100646.78;5074609;28;20353;-67
2022/09/09 11:38:28;;;;;;;6.20;2.83;;;;;;;21.79;57.80;100643.69;5073255;28;20052;-67
2022/09/09 11:41:04;;;;;;;7.47;2.45;;;;;;;21.83;57.55;100637.66;5090127;28;20097;-68
2022/09/09 11:43:42;;;;;;;6.95;2.47;;;;;;;21.87;57.96;100638.13;5088681;28;20032;-68
2022/09/09 11:46:10;;;;;;;6.78;2.47;;;;;;;21.89;57.70;100639.63;5088080;28;20041;-67
2022/09/09 11:48:45;;;;;;;4.93;1.80;;;;;;;21.96;58.06;100636.16;5072572;28;20098;-67
2022/09/09 11:51:21;;;;;;;;;;;;;;;22.07;58.23;100628.34;5073407;28;20097;-67
2022/09/09 11:54:02;;;;;;;3.83;1.40;;;;;;;22.24;57.94;100631.75;5073271;28;20337;-67
2022/09/09 11:56:31;;;;;;;4.03;1.80;;;;;;;22.36;58.54;100623.94;5083208;28;20212;-68
2022/09/09 11:59:04;;;;;;;4.00;2.10;;;;;;;22.52;58.78;100629.19;5074784;28;20402;-67
2022/09/09 12:01:42;;;;;;;5.65;1.60;;;;;;;22.71;58.93;100628.56;5074787;28;20089;-68
2022/09/09 12:04:28;;;;;;;4.47;1.85;;;;;;;22.89;58.87;100628.16;5093139;28;20032;-67